createdAt,value
2018-12-15T16:18:12.942Z,98066.56
2018-12-15T16:48:49.030Z,98095.59
2018-12-15T16:53:53.241Z,98086.66
2018-12-15T16:58:57.397Z,98089.89
2018-12-15T17:04:01.482Z,98087.14
2018-12-15T17:09:08.622Z,98100.25
2018-12-15T17:14:12.705Z,98107.74
2018-12-15T17:19:16.786Z,98107.30
2018-12-15T17:24:20.878Z,98103.36
2018-12-15T17:29:24.953Z,98104.64
2018-12-15T17:34:29.849Z,98098.78
2018-12-15T17:39:34.322Z,98097.16
2018-12-15T17:44:38.411Z,98106.94
2018-12-15T17:49:42.490Z,98112.34
2018-12-15T17:54:46.560Z,98112.08
2018-12-15T17:59:50.647Z,98100.47
2018-12-15T18:04:56.725Z,98090.63
2018-12-15T18:10:01.551Z,98094.63
2018-12-15T18:15:06.196Z,98082.70
2018-12-15T18:20:10.330Z,98068.95
2018-12-15T18:25:14.400Z,98061.62
2018-12-15T18:30:18.476Z,98066.59
2018-12-15T18:35:22.630Z,98058.38
2018-12-15T18:40:26.690Z,98062.19
2018-12-15T18:45:30.875Z,98052.39
2018-12-15T18:50:34.943Z,98048.87
2018-12-15T18:55:39.022Z,98050.17
2018-12-15T19:00:43.106Z,98058.89
2018-12-15T19:05:47.178Z,98058.02
2018-12-15T19:10:51.245Z,98060.57
2018-12-15T19:15:55.325Z,98047.14
2018-12-15T19:20:59.443Z,98048.03
2018-12-15T19:26:03.512Z,98040.69
2018-12-15T19:31:07.583Z,98050.16
2018-12-15T19:36:11.756Z,98030.19
2018-12-15T19:41:15.822Z,98034.56
2018-12-15T19:46:19.902Z,98032.52
2018-12-15T19:51:29.470Z,98028.25
2018-12-15T19:56:30.062Z,98020.50
2018-12-15T20:01:34.143Z,98015.77
2018-12-15T20:06:38.221Z,98006.26
2018-12-15T20:11:42.299Z,98005.01
2018-12-15T20:16:46.357Z,98000.69
2018-12-15T20:21:50.427Z,97988.99
2018-12-15T20:26:54.510Z,97991.59
2018-12-15T20:31:58.557Z,97996.46
2018-12-15T20:37:02.646Z,97984.08
2018-12-15T20:42:06.717Z,97985.84
2018-12-15T20:47:10.886Z,97988.22
2018-12-15T20:52:14.961Z,97981.08
2018-12-15T20:57:19.055Z,97973.84
2018-12-15T21:02:23.134Z,97965.27
2018-12-15T21:07:27.214Z,97956.55
2018-12-15T21:12:31.282Z,97955.98
2018-12-15T21:17:35.371Z,97952.40
2018-12-15T21:22:39.471Z,97952.20
2018-12-15T21:27:43.557Z,97939.47
2018-12-15T21:32:47.726Z,97932.26
2018-12-15T21:37:51.796Z,97933.09
2018-12-15T21:42:55.881Z,97925.61
2018-12-15T21:47:59.959Z,97918.58
2018-12-15T21:53:04.042Z,97917.59
2018-12-15T21:58:08.119Z,97918.38
2018-12-15T22:03:12.301Z,97900.06
2018-12-15T22:08:16.373Z,97892.67
2018-12-15T22:13:20.462Z,97885.18
2018-12-15T22:18:24.537Z,97890.33
2018-12-15T22:23:28.630Z,97887.78
2018-12-15T22:28:32.693Z,97876.48
2018-12-15T22:33:36.771Z,97873.17
2018-12-15T22:38:40.867Z,97867.92
2018-12-15T22:43:44.934Z,97858.41
2018-12-15T22:48:49.019Z,97845.02
2018-12-15T22:53:53.102Z,97847.95
2018-12-15T22:58:57.177Z,97838.84
2018-12-15T23:04:01.367Z,97840.20
2018-12-15T23:09:07.186Z,97834.57
2018-12-15T23:14:11.282Z,97824.95
2018-12-15T23:19:15.363Z,97821.52
2018-12-15T23:24:19.477Z,97814.96
2018-12-15T23:29:23.545Z,97812.31
2018-12-15T23:34:27.631Z,97814.07
2018-12-15T23:39:31.702Z,97803.09
2018-12-15T23:44:35.777Z,97806.11
2018-12-15T23:49:39.853Z,97806.52
2018-12-15T23:54:43.942Z,97796.16
2018-12-15T23:59:48.193Z,97795.27
